Time;durP1;ratioP1;P1;durP2;ratioP2;P2;SDS_P1;SDS_P2;PMS_P1;PMS_P2;Temp;Humidity;BMP_temperature;BMP_pressure;BME280_temperature;BME280_humidity;BME280_pressure;Samples;Min_cycle;Max_cycle;Signal;HPM_P1;HPM_P2
2022/05/22 00:00:25;;;;;;;4.43;1.52;;;;;;;8.76;43.89;98343.63;5143690;27;20064;-44
2022/05/22 00:02:52;;;;;;;3.67;1.58;;;;;;;8.68;43.78;98338.81;5147424;27;20490;-43
2022/05/22 00:05:20;;;;;;;2.78;1.30;;;;;;;8.70;43.82;98359.44;5133416;27;20145;-43
2022/05/22 00:07:47;;;;;;;3.17;1.67;;;;;;;8.61;43.77;98352.13;5134179;27;20057;-44
2022/05/22 00:10:13;;;;;;;4.18;1.70;;;;;;;8.59;44.06;98357.38;5153319;27;20035;-45
2022/05/22 00:12:40;;;;;;;4.47;1.60;;;;;;;8.53;43.85;98362.03;5151620;27;20113;-44
2022/05/22 00:15:07;;;;;;;5.18;1.83;;;;;;;8.39;44.09;98339.34;5129428;27;20045;-45
2022/05/22 00:17:32;;;;;;;3.00;1.67;;;;;;;8.41;44.09;98350.50;5126408;27;20121;-45
2022/05/22 00:19:58;;;;;;;4.28;1.58;;;;;;;8.36;44.56;98353.28;5122665;27;20141;-43
2022/05/22 00:22:24;;;;;;;6.10;1.70;;;;;;;8.27;44.49;98340.72;5133408;27;20038;-44
2022/05/22 00:24:49;;;;;;;4.20;1.60;;;;;;;8.25;44.26;98347.75;5099688;27;20050;-45
2022/05/22 00:27:15;;;;;;;4.03;1.58;;;;;;;8.08;44.22;98330.38;5113057;27;20046;-44
2022/05/22 00:29:41;;;;;;;3.75;1.67;;;;;;;8.13;44.33;98347.44;5131767;27;20444;-44
2022/05/22 00:32:08;;;;;;;4.47;1.98;;;;;;;8.08;44.82;98335.56;5104196;27;20122;-45
2022/05/22 00:34:36;;;;;;;6.32;1.50;;;;;;;8.06;44.78;98345.13;5117207;27;20034;-43
2022/05/22 00:37:02;;;;;;;3.50;1.48;;;;;;;8.00;44.69;98335.09;5127494;27;20515;-43
2022/05/22 00:39:28;;;;;;;4.93;1.52;;;;;;;7.96;44.81;98333.53;5113223;27;20047;-43
2022/05/22 00:41:56;;;;;;;2.72;1.40;;;;;;;7.86;44.96;98324.50;5096884;27;20578;-45
2022/05/22 00:44:22;;;;;;;4.32;1.50;;;;;;;7.91;44.54;98327.72;5115537;27;20034;-44
2022/05/22 00:46:49;;;;;;;6.45;1.77;;;;;;;7.88;44.58;98333.03;5117338;27;20429;-43
2022/05/22 00:49:27;;;;;;;3.92;1.67;;;;;;;7.79;44.63;98317.09;5151785;27;20448;-44
2022/05/22 00:52:05;;;;;;;4.18;1.42;;;;;;;7.82;45.13;98324.72;5116311;27;20051;-44
2022/05/22 00:54:42;;;;;;;4.57;2.05;;;;;;;7.81;45.30;98320.44;5133709;27;20042;-44
2022/05/22 00:57:16;;;;;;;4.50;1.52;;;;;;;7.76;45.40;98319.81;5120861;27;20039;-44
2022/05/22 00:59:46;;;;;;;2.95;1.75;;;;;;;7.74;45.60;98321.66;5134091;27;20479;-45
2022/05/22 01:02:15;;;;;;;4.93;1.58;;;;;;;7.70;45.32;98309.72;5129006;27;20071;-42
2022/05/22 01:04:44;;;;;;;3.38;1.50;;;;;;;7.68;45.68;98316.75;5133414;27;20562;-43
2022/05/22 01:07:10;;;;;;;4.18;1.88;;;;;;;7.63;45.26;98322.13;5144265;27;20041;-43
2022/05/22 01:09:37;;;;;;;2.33;1.45;;;;;;;7.60;46.29;98315.31;5113232;28;20046;-44
2022/05/22 01:12:12;;;;;;;2.78;1.67;;;;;;;7.58;45.87;98305.97;5131998;27;20050;-44
2022/05/22 01:14:39;;;;;;;4.05;1.40;;;;;;;7.56;46.28;98315.53;5124191;28;20088;-43
2022/05/22 01:17:09;;;;;;;4.17;1.80;;;;;;;7.53;46.27;98308.75;5131492;27;20046;-43
2022/05/22 01:19:36;;;;;;;;;;;;;;;7.51;46.24;98312.31;5112427;28;20035;-43
2022/05/22 01:22:07;;;;;;;3.08;1.73;;;;;;;7.48;45.97;98307.28;5099840;27;19946;-43
2022/05/22 01:24:36;;;;;;;4.15;1.50;;;;;;;7.45;46.44;98304.81;5150729;27;20136;-42
2022/05/22 01:27:05;;;;;;;4.63;1.60;;;;;;;7.43;46.49;98299.69;5137270;27;20038;-44
2022/05/22 01:30:09;;;;;;;3.15;1.45;;;;;;;7.42;46.57;98307.53;5106473;28;20038;-44
2022/05/22 01:32:37;;;;;;;4.88;1.40;;;;;;;7.37;47.35;98310.34;5124494;27;20030;-43
2022/05/22 01:35:07;;;;;;;5.53;1.75;;;;;;;7.35;46.71;98306.97;5113142;28;20081;-45
2022/05/22 01:37:33;;;;;;;2.90;1.30;;;;;;;7.29;46.89;98296.03;5130862;27;20426;-44
2022/05/22 01:39:59;;;;;;;3.00;1.70;;;;;;;7.31;46.40;98296.81;5121547;27;20104;-43
2022/05/22 01:42:25;;;;;;;4.20;1.83;;;;;;;7.30;46.64;98290.81;5119420;27;20506;-44
2022/05/22 01:44:51;;;;;;;3.25;1.20;;;;;;;7.32;46.51;98293.34;5118643;27;20053;-44
2022/05/22 01:47:17;;;;;;;6.57;1.50;;;;;;;7.30;46.57;98290.81;5112631;27;20517;-44
2022/05/22 01:49:43;;;;;;;8.75;3.58;;;;;;;7.24;46.68;98289.34;5146527;27;20047;-44
2022/05/22 01:52:10;;;;;;;6.05;1.40;;;;;;;7.28;46.76;98295.19;5130408;27;20555;-42
2022/05/22 01:54:36;;;;;;;3.00;1.58;;;;;;;7.28;46.38;98295.19;5136751;27;20039;-44
2022/05/22 01:57:03;;;;;;;3.67;1.33;;;;;;;7.27;46.96;98290.97;5129145;27;20175;-44
2022/05/22 01:59:29;;;;;;;5.15;1.63;;;;;;;7.21;46.39;98286.91;5136404;27;20521;-43
2022/05/22 02:02:06;;;;;;;5.57;1.65;;;;;;;7.23;46.89;98295.41;5126587;27;20050;-43
2022/05/22 02:04:32;;;;;;;2.25;1.23;;;;;;;7.16;46.60;98282.81;5134999;27;20058;-43
2022/05/22 02:09:44;;;;;;;2.25;1.60;;;;;;;7.23;46.60;98286.81;5136326;27;20050;-44
2022/05/22 02:12:12;;;;;;;3.65;1.58;;;;;;;7.20;47.07;98292.13;5083412;27;20031;-44
2022/05/22 02:14:38;;;;;;;3.95;1.38;;;;;;;7.20;46.88;98286.94;5118762;27;20506;-47
2022/05/22 02:17:11;;;;;;;2.35;1.50;;;;;;;7.20;47.08;98274.88;5133900;27;20046;-44
2022/05/22 02:19:48;;;;;;;3.17;1.30;;;;;;;7.16;46.57;98278.50;5136405;27;20058;-47
2022/05/22 02:22:24;;;;;;;3.42;1.90;;;;;;;7.14;47.12;98274.28;5136586;27;20042;-44
2022/05/22 02:24:53;;;;;;;6.47;1.65;;;;;;;7.12;47.01;98266.59;5133738;27;20046;-43
2022/05/22 02:27:19;;;;;;;3.60;1.97;;;;;;;7.22;47.24;98287.75;5117310;27;20062;-45
2022/05/22 02:29:47;;;;;;;3.38;1.60;;;;;;;7.21;47.22;98284.31;5152838;27;20057;-43
2022/05/22 02:32:13;;;;;;;3.90;1.90;;;;;;;7.17;46.99;98274.97;5135721;27;20164;-43
2022/05/22 02:34:39;;;;;;;4.25;1.58;;;;;;;7.15;46.98;98269.06;5134989;27;20079;-43
2022/05/22 02:37:05;;;;;;;3.10;1.50;;;;;;;7.23;47.22;98286.81;5141574;27;20041;-44
2022/05/22 02:39:32;;;;;;;4.35;1.42;;;;;;;7.25;47.63;98290.19;5134669;27;20414;-44
2022/05/22 02:42:05;;;;;;;4.30;1.58;;;;;;;7.21;47.40;98286.91;5153477;27;20145;-43
2022/05/22 02:44:31;;;;;;;4.90;1.50;;;;;;;7.19;47.12;98270.59;5118831;27;20049;-43
2022/05/22 02:46:57;;;;;;;5.32;1.73;;;;;;;7.29;47.34;98288.28;5115546;27;20510;-43
2022/05/22 02:49:23;;;;;;;3.60;1.80;;;;;;;7.30;47.15;98288.22;5130644;27;20507;-43
2022/05/22 02:51:48;;;;;;;6.28;1.90;;;;;;;7.31;47.37;98289.91;5133422;27;20045;-44
2022/05/22 02:54:14;;;;;;;3.08;1.58;;;;;;;7.29;47.82;98277.94;5154158;27;20035;-45
2022/05/22 02:56:48;;;;;;;3.65;1.80;;;;;;;7.34;47.25;98286.34;5135977;27;20091;-44
2022/05/22 02:59:35;;;;;;;3.08;1.90;;;;;;;7.27;47.57;98272.03;5135681;27;20573;-43
2022/05/22 03:02:30;;;;;;;6.65;1.75;;;;;;;7.35;47.75;98288.03;5122246;27;20122;-44
2022/05/22 03:04:55;;;;;;;2.75;1.45;;;;;;;7.39;47.54;98289.56;5120624;27;20051;-43
2022/05/22 03:07:21;;;;;;;4.35;1.70;;;;;;;7.41;47.95;98285.19;5097201;28;20048;-44
2022/05/22 03:09:48;;;;;;;4.70;1.80;;;;;;;7.45;48.02;98292.72;5130787;27;20426;-43
2022/05/22 03:12:18;;;;;;;4.47;1.77;;;;;;;7.46;47.97;98291.00;5114995;27;20083;-43
2022/05/22 03:14:51;;;;;;;2.67;1.90;;;;;;;7.47;47.87;98296.09;5130357;27;20050;-44
2022/05/22 03:17:17;;;;;;;2.35;1.58;;;;;;;7.49;47.82;98290.84;5133452;27;20120;-44
2022/05/22 03:19:51;;;;;;;3.80;1.65;;;;;;;7.52;47.94;98282.97;5143773;27;20043;-43
2022/05/22 03:22:17;;;;;;;4.15;1.75;;;;;;;7.50;48.17;98272.69;5129579;27;20081;-43
2022/05/22 03:24:43;;;;;;;3.65;1.80;;;;;;;7.56;48.19;98284.50;5123051;27;20046;-43
2022/05/22 03:27:14;;;;;;;4.35;2.03;;;;;;;7.57;48.07;98287.03;5125698;27;20036;-45
2022/05/22 03:29:42;;;;;;;3.33;1.80;;;;;;;7.59;48.26;98284.34;5121814;27;20425;-44
2022/05/22 03:32:09;;;;;;;4.72;1.60;;;;;;;7.60;48.40;98283.44;5095586;27;20537;-44
2022/05/22 03:34:35;;;;;;;5.38;1.75;;;;;;;7.61;48.19;98280.81;5125954;27;20777;-44
2022/05/22 03:37:02;;;;;;;6.88;2.00;;;;;;;7.57;48.25;98274.09;5112174;27;20449;-43
2022/05/22 03:39:28;;;;;;;4.70;1.67;;;;;;;7.65;48.22;98287.50;5093720;28;20054;-45
2022/05/22 03:41:55;;;;;;;6.43;1.77;;;;;;;7.62;47.71;98266.97;5112116;28;20031;-44
2022/05/22 03:44:23;;;;;;;4.35;1.55;;;;;;;7.74;47.32;98282.84;5078072;28;20066;-44
2022/05/22 03:46:49;;;;;;;3.53;1.83;;;;;;;7.76;47.47;98281.84;5119324;27;20038;-44
2022/05/22 03:49:19;;;;;;;5.07;2.30;;;;;;;7.78;47.73;98282.63;5116454;27;20049;-43
2022/05/22 03:51:48;;;;;;;6.53;1.87;;;;;;;7.72;47.49;98269.97;5129209;27;20073;-44
2022/05/22 03:54:16;;;;;;;4.63;1.60;;;;;;;7.83;47.68;98279.84;5113705;27;20308;-44
2022/05/22 03:56:44;;;;;;;5.47;1.75;;;;;;;7.85;47.32;98281.44;5111855;28;20053;-43
2022/05/22 03:59:20;;;;;;;3.63;1.80;;;;;;;7.88;47.36;98289.06;5118408;27;20035;-43
2022/05/22 04:01:46;;;;;;;4.07;1.80;;;;;;;7.92;47.15;98279.41;5110404;28;20449;-44
2022/05/22 04:04:13;;;;;;;5.22;2.10;;;;;;;7.93;46.63;98279.34;5123392;27;20075;-43
2022/05/22 04:06:39;;;;;;;3.55;1.60;;;;;;;7.96;46.96;98281.78;5092502;28;20040;-43
2022/05/22 04:09:05;;;;;;;3.25;1.88;;;;;;;7.99;46.37;98278.22;5114055;27;20127;-43
2022/05/22 04:11:50;;;;;;;5.65;2.22;;;;;;;7.98;46.50;98266.19;5095054;28;20148;-43
2022/05/22 04:14:18;;;;;;;3.50;1.65;;;;;;;8.05;46.42;98278.78;5109345;27;20047;-43
2022/05/22 04:16:51;;;;;;;3.30;1.80;;;;;;;8.10;46.47;98273.38;5107281;28;20040;-43
2022/05/22 04:19:18;;;;;;;2.75;1.45;;;;;;;8.13;46.23;98272.38;5090852;28;20032;-43
2022/05/22 04:21:44;;;;;;;2.95;1.60;;;;;;;8.15;46.07;98265.41;5090034;28;20038;-42
2022/05/22 04:27:07;;;;;;;5.63;1.70;;;;;;;8.24;46.09;98276.16;5107063;28;20495;-43
2022/05/22 04:29:35;;;;;;;2.72;1.83;;;;;;;8.27;46.20;98270.00;5080718;28;20625;-43
2022/05/22 04:32:03;;;;;;;2.22;1.38;;;;;;;8.28;46.13;98282.00;5089767;28;20534;-42
2022/05/22 04:34:39;;;;;;;2.25;1.60;;;;;;;8.32;45.78;98271.47;5095261;28;20637;-43
2022/05/22 04:37:09;;;;;;;3.35;1.45;;;;;;;8.29;45.72;98261.25;5109463;28;20047;-43
2022/05/22 04:39:47;;;;;;;4.53;1.60;;;;;;;8.34;45.28;98266.22;5087108;28;20047;-44
2022/05/22 04:42:14;;;;;;;3.47;1.50;;;;;;;8.48;45.06;98266.38;5108692;28;20062;-43
2022/05/22 04:44:41;;;;;;;5.97;1.60;;;;;;;8.55;44.77;98270.38;5099180;28;20427;-43
2022/05/22 04:47:25;;;;;;;3.10;1.52;;;;;;;8.59;45.14;98271.06;5105786;28;20558;-43
2022/05/22 04:50:16;;;;;;;3.55;1.38;;;;;;;8.60;44.84;98271.00;5102803;28;20123;-43
2022/05/22 04:53:02;;;;;;;3.78;1.42;;;;;;;8.61;44.50;98275.25;5087261;28;20572;-43
2022/05/22 04:55:31;;;;;;;;;;;;;;;8.67;44.51;98269.78;5090990;28;20052;-43
2022/05/22 04:58:02;;;;;;;3.85;1.50;;;;;;;8.75;44.25;98264.22;5106321;28;20376;-43
2022/05/22 05:00:28;;;;;;;3.88;1.70;;;;;;;8.82;44.37;98269.03;5073468;28;20047;-44
2022/05/22 05:03:07;;;;;;;2.83;1.42;;;;;;;8.88;43.95;98265.28;5109297;28;20035;-43
2022/05/22 05:05:33;;;;;;;3.83;1.47;;;;;;;8.95;43.76;98268.41;5125301;28;20079;-44
2022/05/22 05:08:00;;;;;;;2.17;1.20;;;;;;;8.99;43.39;98263.00;5130312;28;20300;-44
2022/05/22 05:10:44;;;;;;;2.97;1.27;;;;;;;9.03;43.30;98264.50;5131943;27;20603;-44
2022/05/22 05:13:20;;;;;;;3.85;1.67;;;;;;;9.12;43.21;98255.41;5111222;28;20032;-44
2022/05/22 05:15:57;;;;;;;2.67;1.40;;;;;;;9.19;42.86;98261.97;5114481;27;20041;-43
2022/05/22 05:18:26;;;;;;;2.70;1.30;;;;;;;9.24;42.76;98257.38;5114429;28;20051;-43
2022/05/22 05:20:54;;;;;;;3.75;1.17;;;;;;;9.35;42.77;98260.25;5119026;27;20039;-47
2022/05/22 05:23:22;;;;;;;2.22;1.20;;;;;;;9.45;42.51;98261.47;5107131;27;20097;-44
2022/05/22 05:25:59;;;;;;;4.93;1.40;;;;;;;9.54;42.50;98260.97;5126849;27;20062;-43
2022/05/22 05:28:25;;;;;;;4.38;1.33;;;;;;;9.54;41.78;98255.78;5113850;28;20036;-42
2022/05/22 05:30:52;;;;;;;2.45;1.73;;;;;;;9.69;41.12;98267.94;5146167;27;20047;-43
2022/05/22 05:33:18;;;;;;;2.17;1.15;;;;;;;9.76;40.95;98263.25;5134040;27;20091;-43
2022/05/22 05:36:16;;;;;;;1.48;1.13;;;;;;;9.89;40.86;98255.66;5117026;27;20050;-43
2022/05/22 05:39:02;;;;;;;1.83;1.02;;;;;;;9.98;40.58;98257.75;5134691;27;20059;-44
2022/05/22 05:41:55;;;;;;;4.10;1.45;;;;;;;10.06;40.43;98258.16;5133939;27;20100;-44
2022/05/22 05:44:21;;;;;;;3.78;1.63;;;;;;;10.10;40.32;98254.50;5133528;27;20035;-47
2022/05/22 05:46:50;;;;;;;8.05;1.70;;;;;;;10.16;40.40;98256.75;5104533;28;20507;-44
2022/05/22 05:49:16;;;;;;;2.90;1.30;;;;;;;10.27;40.17;98245.78;5113655;28;20082;-44
2022/05/22 05:51:44;;;;;;;2.65;1.33;;;;;;;10.41;39.70;98238.91;5136269;27;20126;-43
2022/05/22 05:54:13;;;;;;;4.25;1.45;;;;;;;10.52;39.63;98241.69;5097385;28;20466;-45
2022/05/22 05:57:05;;;;;;;6.65;1.70;;;;;;;10.63;39.69;98246.28;5113671;27;20069;-45
2022/05/22 05:59:39;;;;;;;5.28;1.90;;;;;;;10.76;39.11;98252.47;5133699;27;20047;-43
2022/05/22 06:02:14;;;;;;;6.40;1.70;;;;;;;10.77;38.58;98250.69;5098550;27;20032;-42
2022/05/22 06:04:39;;;;;;;6.35;1.83;;;;;;;10.80;38.41;98242.72;5130432;27;20055;-44
2022/05/22 06:07:07;;;;;;;4.93;2.15;;;;;;;10.93;37.79;98254.09;5131845;27;20046;-42
2022/05/22 06:09:34;;;;;;;4.35;1.50;;;;;;;11.08;37.91;98258.38;5107870;28;20193;-44
2022/05/22 06:12:18;;;;;;;2.08;1.20;;;;;;;11.26;38.19;98252.06;5114608;27;20027;-44
2022/05/22 06:15:07;;;;;;;6.10;1.55;;;;;;;11.35;37.82;98242.91;5150673;27;20039;-44
2022/05/22 06:17:36;;;;;;;3.72;1.30;;;;;;;11.60;36.59;98257.84;5133649;27;20051;-47
2022/05/22 06:20:06;;;;;;;2.05;1.30;;;;;;;11.81;36.14;98248.75;5132387;27;20043;-43
2022/05/22 06:22:37;;;;;;;3.05;1.20;;;;;;;12.04;35.48;98258.53;5117156;27;20050;-42
2022/05/22 06:25:08;;;;;;;2.97;1.35;;;;;;;12.37;35.05;98257.34;5116649;27;20039;-44
2022/05/22 06:27:50;;;;;;;3.17;1.20;;;;;;;12.77;34.27;98256.41;5120636;27;20126;-43
2022/05/22 06:30:34;;;;;;;4.25;1.40;;;;;;;13.25;33.45;98235.84;5131356;27;20046;-43
2022/05/22 06:33:20;;;;;;;4.13;1.35;;;;;;;14.15;32.75;98257.31;5118399;27;20057;-44
2022/05/22 06:36:10;;;;;;;2.17;1.20;;;;;;;15.38;30.67;98248.16;5118538;27;20499;-44
2022/05/22 06:42:05;;;;;;;4.57;1.60;;;;;;;18.19;26.83;98246.69;5109246;27;20052;-42
2022/05/22 06:44:57;;;;;;;3.72;1.70;;;;;;;19.47;24.83;98258.75;5129708;27;20088;-44
2022/05/22 06:47:55;;;;;;;4.88;1.83;;;;;;;20.80;23.64;98260.00;5101071;28;20051;-46
2022/05/22 06:50:57;;;;;;;2.40;1.33;;;;;;;21.89;21.52;98249.69;5061965;28;20040;-42
2022/05/22 06:53:31;;;;;;;5.78;1.77;;;;;;;22.81;21.43;98246.19;5110629;27;20079;-43
2022/05/22 06:56:17;;;;;;;5.05;1.63;;;;;;;24.05;20.20;98252.78;5114082;27;20561;-47
2022/05/22 06:59:01;;;;;;;4.53;1.48;;;;;;;25.06;19.02;98255.38;5123243;27;20479;-44
2022/05/22 07:01:41;;;;;;;3.60;1.90;;;;;;;25.95;18.15;98257.97;5116807;27;20138;-44
2022/05/22 07:04:36;;;;;;;3.35;2.20;;;;;;;26.84;16.86;98254.13;5042493;28;20099;-44
2022/05/22 07:07:21;;;;;;;3.53;2.05;;;;;;;27.66;16.43;98242.91;5094199;28;20126;-43
2022/05/22 07:10:13;;;;;;;3.60;1.85;;;;;;;28.56;15.97;98250.72;5109607;28;20048;-43
2022/05/22 07:13:00;;;;;;;4.47;1.98;;;;;;;29.37;15.16;98254.16;5112779;28;20043;-44
2022/05/22 07:15:41;;;;;;;2.33;1.75;;;;;;;29.96;14.46;98247.88;5105199;28;20546;-44
2022/05/22 07:18:24;;;;;;;2.00;1.60;;;;;;;30.59;13.63;98247.03;5128641;27;20050;-43
2022/05/22 07:21:12;;;;;;;6.90;2.13;;;;;;;30.98;13.14;98254.00;5123366;27;20040;-43
2022/05/22 07:23:59;;;;;;;8.10;2.42;;;;;;;31.39;12.67;98249.97;5113017;28;20120;-43
2022/05/22 07:26:45;;;;;;;;;;;;;;;31.83;12.40;98252.44;5112451;27;20047;-46
2022/05/22 07:29:43;;;;;;;;;;;;;;;32.23;11.99;98252.84;5069738;28;19915;-46
2022/05/22 07:32:20;;;;;;;3.15;1.65;;;;;;;32.53;11.51;98246.66;5113708;27;19915;-45
2022/05/22 07:35:09;;;;;;;1.88;1.60;;;;;;;32.67;11.10;98246.28;5100837;28;20079;-47
2022/05/22 07:37:56;;;;;;;39.40;3.28;;;;;;;33.02;11.31;98245.56;5106542;28;20055;-46
2022/05/22 07:40:41;;;;;;;4.47;1.70;;;;;;;33.20;10.66;98251.72;5112334;28;20188;-47
2022/05/22 07:43:24;;;;;;;5.22;1.92;;;;;;;33.38;10.81;98255.38;5111450;28;20052;-44
2022/05/22 07:46:22;;;;;;;4.22;1.92;;;;;;;33.63;10.42;98247.88;5084729;28;20146;-44
2022/05/22 07:49:06;;;;;;;4.50;2.17;;;;;;;33.78;10.24;98258.19;5112499;28;20043;-44
2022/05/22 07:51:57;;;;;;;5.63;1.80;;;;;;;33.91;10.54;98244.47;5125954;27;20129;-46
2022/05/22 07:54:58;;;;;;;4.20;2.20;;;;;;;34.16;10.22;98241.47;5073788;28;20100;-42
2022/05/22 07:57:49;;;;;;;2.65;1.90;;;;;;;34.34;10.04;98238.63;5125625;27;20058;-46
2022/05/22 08:00:54;;;;;;;3.22;2.08;;;;;;;34.48;10.11;98248.09;5089102;28;20119;-44
2022/05/22 08:03:38;;;;;;;3.33;1.75;;;;;;;34.20;9.59;98237.25;5084962;28;20131;-44
2022/05/22 08:06:05;;;;;;;2.72;2.03;;;;;;;34.49;9.71;98233.53;5102774;27;20051;-43
2022/05/22 08:08:35;;;;;;;4.40;2.25;;;;;;;34.80;9.66;98233.06;5097481;27;20461;-43
2022/05/22 08:11:30;;;;;;;4.03;2.47;;;;;;;34.73;9.62;98223.47;5116378;27;20043;-45
2022/05/22 08:14:05;;;;;;;2.95;2.00;;;;;;;35.07;9.37;98232.44;5139478;27;20596;-44
2022/05/22 08:16:36;;;;;;;3.55;2.22;;;;;;;35.18;9.57;98220.72;5131636;27;20130;-44
2022/05/22 08:19:28;;;;;;;6.07;2.28;;;;;;;35.58;9.23;98217.84;5123186;27;20047;-43
2022/05/22 08:22:19;;;;;;;2.80;1.83;;;;;;;35.77;9.01;98221.09;5081553;28;20048;-43
2022/05/22 08:25:04;;;;;;;2.45;2.10;;;;;;;35.67;8.80;98219.88;5087923;28;20036;-47
2022/05/22 08:27:31;;;;;;;9.80;2.10;;;;;;;35.62;8.57;98219.78;5072789;28;20060;-44
2022/05/22 08:29:57;;;;;;;4.53;2.40;;;;;;;35.75;8.77;98217.84;5058536;28;20529;-43
2022/05/22 08:32:29;;;;;;;4.20;2.20;;;;;;;36.13;9.06;98222.34;5070323;28;20040;-43
2022/05/22 08:34:55;;;;;;;4.63;2.20;;;;;;;36.44;8.39;98222.47;5070260;28;20040;-45
2022/05/22 08:37:21;;;;;;;8.02;1.92;;;;;;;36.36;8.53;98219.41;5068454;28;20035;-45
2022/05/22 08:39:47;;;;;;;7.53;4.47;;;;;;;36.50;8.45;98213.34;5062943;28;20067;-43
2022/05/22 08:42:43;;;;;;;12.60;6.38;;;;;;;36.53;8.69;98209.31;5079955;28;20036;-45
2022/05/22 08:45:32;;;;;;;20.88;10.75;;;;;;;36.64;8.13;98215.69;5070549;28;20237;-47
2022/05/22 08:48:08;;;;;;;7.25;2.10;;;;;;;36.72;8.26;98207.06;5077173;28;20073;-45
2022/05/22 08:50:36;;;;;;;7.93;2.50;;;;;;;36.62;7.95;98209.69;5046408;28;20182;-47
2022/05/22 08:53:06;;;;;;;5.75;3.03;;;;;;;36.67;8.12;98201.63;5064125;28;20077;-45
2022/05/22 09:01:12;;;;;;;5.32;3.50;;;;;;;36.43;8.18;98199.16;5115360;28;19922;-44
2022/05/22 09:03:55;;;;;;;4.28;2.95;;;;;;;36.90;7.80;98202.09;5121159;27;20036;-44
2022/05/22 09:06:45;;;;;;;10.43;5.72;;;;;;;37.25;7.87;98196.16;5109031;28;20039;-44
2022/05/22 09:09:11;;;;;;;12.20;5.25;;;;;;;37.25;7.82;98206.19;5119456;28;20036;-49
2022/05/22 09:11:52;;;;;;;9.00;4.65;;;;;;;37.42;7.16;98206.03;5102801;28;20054;-49
2022/05/22 09:14:34;;;;;;;11.25;4.90;;;;;;;37.67;7.19;98198.91;5120308;28;20046;-48
2022/05/22 09:17:23;;;;;;;5.03;3.08;;;;;;;37.57;7.20;98200.75;5113941;28;20036;-48
2022/05/22 09:20:13;;;;;;;9.57;2.80;;;;;;;37.62;7.10;98198.06;5117258;28;20522;-49
2022/05/22 09:22:39;;;;;;;6.47;3.50;;;;;;;37.50;6.77;98198.22;5122589;28;20035;-51
2022/05/22 09:25:22;;;;;;;5.15;3.15;;;;;;;37.58;7.22;98199.66;5118712;28;20066;-49
2022/05/22 09:28:08;;;;;;;5.95;3.25;;;;;;;37.64;7.05;98204.00;5118138;28;20502;-48
2022/05/22 09:30:57;;;;;;;6.28;4.05;;;;;;;37.60;7.30;98205.63;5122953;28;20088;-50
2022/05/22 09:33:32;;;;;;;4.32;3.22;;;;;;;37.68;7.07;98186.97;5104041;28;20046;-48
2022/05/22 09:36:40;;;;;;;8.05;3.67;;;;;;;37.75;6.96;98189.44;5120480;28;20530;-48
2022/05/22 09:39:23;;;;;;;7.63;3.83;;;;;;;37.88;6.99;98183.53;5109264;28;20054;-47
2022/05/22 09:42:13;;;;;;;5.80;4.28;;;;;;;38.21;6.92;98193.16;5116673;28;20077;-53
2022/05/22 09:44:55;;;;;;;6.00;4.03;;;;;;;38.33;6.73;98204.59;5100477;28;20063;-53
2022/05/22 09:47:58;;;;;;;5.93;3.58;;;;;;;38.29;6.73;98176.34;5115428;28;20039;-49
2022/05/22 09:50:57;;;;;;;6.15;3.30;;;;;;;38.30;6.87;98191.56;5124700;28;20049;-54
2022/05/22 09:53:50;;;;;;;3.85;2.90;;;;;;;38.38;6.79;98198.38;5075953;28;20079;-52
2022/05/22 09:56:28;;;;;;;3.83;2.10;;;;;;;38.60;6.45;98182.69;5126306;28;20039;-49
2022/05/22 09:58:59;;;;;;;4.57;2.90;;;;;;;38.56;6.40;98187.03;5113093;28;20571;-56
2022/05/22 10:01:30;;;;;;;5.55;2.67;;;;;;;38.66;6.87;98178.06;5122480;27;20039;-47
2022/05/22 10:04:09;;;;;;;4.95;2.60;;;;;;;38.39;6.71;98176.38;5132125;27;20063;-48
2022/05/22 10:06:54;;;;;;;5.50;2.65;;;;;;;38.31;6.84;98179.63;5130960;27;20035;-57
2022/05/22 10:09:38;;;;;;;5.88;2.70;;;;;;;38.06;6.78;98179.53;5148829;27;20042;-48
2022/05/22 10:12:13;;;;;;;3.45;2.70;;;;;;;38.40;6.51;98179.91;5134599;27;20043;-48
2022/05/22 10:14:57;;;;;;;6.60;2.75;;;;;;;38.58;6.77;98178.63;5147591;27;20035;-46
2022/05/22 10:17:26;;;;;;;4.10;2.70;;;;;;;38.64;6.84;98170.19;5147930;27;20037;-49
2022/05/22 10:20:13;;;;;;;5.70;3.30;;;;;;;38.38;6.59;98176.63;5132815;27;20459;-49
2022/05/22 10:23:03;;;;;;;8.40;3.85;;;;;;;38.21;6.98;98170.66;5121362;27;20530;-53
2022/05/22 10:25:32;;;;;;;7.00;2.60;;;;;;;38.34;6.89;98180.97;5113178;27;20169;-49
2022/05/22 10:28:12;;;;;;;3.78;2.50;;;;;;;38.32;7.17;98177.72;5135085;27;20125;-47
2022/05/22 10:31:13;;;;;;;8.15;3.10;;;;;;;38.30;7.05;98185.31;5119795;27;20042;-50
2022/05/22 10:33:55;;;;;;;5.93;3.10;;;;;;;38.37;6.39;98181.25;5118390;27;20400;-48
2022/05/22 10:36:30;;;;;;;2.95;2.50;;;;;;;38.25;6.43;98182.59;5128039;27;20042;-50
2022/05/22 10:39:06;;;;;;;5.63;2.60;;;;;;;38.24;6.65;98176.34;5109016;27;20039;-46
2022/05/22 10:44:23;;;;;;;2.85;2.53;;;;;;;37.80;6.66;98170.44;5128909;27;20480;-47
2022/05/22 10:46:51;;;;;;;2.78;2.20;;;;;;;37.82;6.41;98165.59;5131387;27;20479;-49
2022/05/22 10:49:19;;;;;;;;;;;;;;;37.77;6.61;98170.19;5154910;27;20039;-47
2022/05/22 10:52:02;;;;;;;5.30;2.10;;;;;;;37.78;6.85;98172.63;5145764;27;20382;-53
2022/05/22 10:54:31;;;;;;;6.35;2.00;;;;;;;37.83;6.84;98167.22;5123243;27;20525;-50
2022/05/22 10:57:18;;;;;;;9.00;2.83;;;;;;;37.56;6.58;98156.53;5150479;27;20046;-49
2022/05/22 10:59:45;;;;;;;7.13;3.20;;;;;;;36.90;6.78;98174.19;5154940;27;20501;-50
2022/05/22 11:02:25;;;;;;;5.63;2.90;;;;;;;37.01;7.52;98189.44;5117805;27;20045;-48
2022/05/22 11:04:53;;;;;;;2.60;2.40;;;;;;;37.40;7.16;98172.94;5151779;27;20058;-50
2022/05/22 11:07:45;;;;;;;3.55;2.70;;;;;;;37.63;7.55;98178.00;5147730;27;20050;-52
2022/05/22 11:10:20;;;;;;;3.28;2.97;;;;;;;37.36;7.55;98179.97;5141794;27;20049;-50
2022/05/22 11:13:20;;;;;;;5.22;2.53;;;;;;;37.28;7.47;98183.97;5119071;27;20038;-50
2022/05/22 11:15:45;;;;;;;5.03;2.83;;;;;;;37.60;7.42;98184.75;5134509;27;20444;-48
2022/05/22 11:18:24;;;;;;;5.78;2.72;;;;;;;37.62;7.00;98173.63;5133288;27;20042;-48
2022/05/22 11:20:58;;;;;;;10.73;3.08;;;;;;;37.35;7.18;98179.16;5115016;27;20374;-51
2022/05/22 11:23:49;;;;;;;8.18;2.47;;;;;;;37.40;6.78;98164.81;5134400;27;20510;-53
2022/05/22 11:26:15;;;;;;;8.57;2.70;;;;;;;37.54;7.26;98177.66;5147934;27;20509;-50
2022/05/22 11:28:56;;;;;;;4.43;2.60;;;;;;;37.77;7.14;98181.84;5147140;27;20121;-50
2022/05/22 11:31:37;;;;;;;4.35;2.05;;;;;;;37.79;6.60;98168.81;5137756;27;20119;-47
2022/05/22 11:34:12;;;;;;;6.03;2.28;;;;;;;37.71;7.25;98181.00;5146091;27;20046;-45
2022/05/22 11:36:59;;;;;;;3.72;2.60;;;;;;;37.91;7.30;98176.75;5122863;27;20042;-48
2022/05/22 11:39:41;;;;;;;4.30;2.10;;;;;;;37.49;7.12;98176.78;5114867;27;20122;-49
2022/05/22 11:42:33;;;;;;;3.15;2.58;;;;;;;37.71;7.49;98174.75;5120268;27;20138;-47
2022/05/22 11:45:24;;;;;;;3.55;2.75;;;;;;;37.67;7.10;98165.53;5133953;27;20506;-48
2022/05/22 11:48:09;;;;;;;4.35;2.67;;;;;;;37.15;7.39;98179.00;5148560;27;20123;-49
2022/05/22 11:50:50;;;;;;;3.25;2.17;;;;;;;36.84;7.12;98176.03;5135233;27;20074;-47
2022/05/22 11:53:58;;;;;;;4.25;2.30;;;;;;;36.70;7.26;98171.28;5127227;27;20118;-48
2022/05/22 11:56:43;;;;;;;8.75;2.28;;;;;;;36.28;7.62;98165.72;5108067;27;20485;-49
2022/05/22 11:59:18;;;;;;;4.32;2.58;;;;;;;36.01;7.72;98180.00;5151470;27;20436;-51
2022/05/22 12:02:13;;;;;;;7.00;2.38;;;;;;;36.22;8.34;98174.88;5153001;27;20058;-51
2022/05/22 12:04:58;;;;;;;6.40;2.70;;;;;;;36.47;8.18;98162.41;5133842;27;20085;-47
2022/05/22 12:07:39;;;;;;;5.43;2.10;;;;;;;36.32;7.76;98169.56;5133113;27;20510;-50
2022/05/22 12:10:22;;;;;;;3.97;2.42;;;;;;;36.07;8.16;98170.88;5151696;27;20098;-50
2022/05/22 12:13:03;;;;;;;2.30;1.98;;;;;;;35.92;8.35;98165.28;5115206;27;20046;-50
2022/05/22 12:15:47;;;;;;;6.00;2.00;;;;;;;35.68;7.74;98170.16;5152651;27;20034;-49
2022/05/22 12:18:30;;;;;;;2.90;2.13;;;;;;;35.23;8.25;98169.47;5151722;27;20091;-50
2022/05/22 12:21:25;;;;;;;2.40;1.75;;;;;;;35.32;8.13;98167.16;5151909;27;20035;-51
2022/05/22 12:24:07;;;;;;;3.60;2.20;;;;;;;35.12;8.47;98157.66;5131426;27;20043;-50
2022/05/22 12:26:34;;;;;;;4.43;2.53;;;;;;;35.15;8.69;98161.75;5151371;27;20049;-48
2022/05/22 12:29:04;;;;;;;2.90;2.20;;;;;;;35.30;8.72;98164.72;5130582;27;20129;-49
2022/05/22 12:31:36;;;;;;;7.50;2.50;;;;;;;34.89;8.89;98170.53;5132331;27;20095;-50
2022/05/22 12:34:07;;;;;;;8.48;1.88;;;;;;;34.28;8.82;98155.94;5115904;27;20421;-49
2022/05/22 12:36:34;;;;;;;2.90;1.70;;;;;;;33.62;9.56;98166.16;5142160;27;20520;-48
2022/05/22 12:39:08;;;;;;;5.13;1.50;;;;;;;32.32;9.84;98165.41;5152857;27;20045;-48